createdAt,value
2018-07-29T00:00:47.138Z,1011.42
2018-07-29T00:01:47.122Z,1011.40
2018-07-29T00:02:47.097Z,1011.42
2018-07-29T00:03:47.083Z,1011.39
2018-07-29T00:04:47.091Z,1011.40
2018-07-29T00:05:47.080Z,1011.40
2018-07-29T00:06:47.055Z,1011.40
2018-07-29T00:07:47.037Z,1011.42
2018-07-29T00:08:47.031Z,1011.38
2018-07-29T00:09:47.025Z,1011.38
2018-07-29T00:10:47.020Z,1011.40
2018-07-29T00:11:47.010Z,1011.43
2018-07-29T00:12:46.998Z,1011.44
2018-07-29T00:13:46.976Z,1011.45
2018-07-29T00:14:46.964Z,1011.43
2018-07-29T00:15:46.956Z,1011.46
2018-07-29T00:16:46.959Z,1011.46
2018-07-29T00:17:46.925Z,1011.48
2018-07-29T00:18:46.922Z,1011.48
2018-07-29T00:19:46.911Z,1011.46
2018-07-29T00:20:46.890Z,1011.45
2018-07-29T00:21:46.908Z,1011.43
2018-07-29T00:22:46.870Z,1011.44
2018-07-29T00:23:46.867Z,1011.41
2018-07-29T00:24:46.867Z,1011.41
2018-07-29T00:25:46.842Z,1011.38
2018-07-29T00:26:46.828Z,1011.37
2018-07-29T00:27:46.842Z,1011.36
2018-07-29T00:28:46.810Z,1011.35
2018-07-29T00:29:46.790Z,1011.35
2018-07-29T00:30:46.783Z,1011.36
2018-07-29T00:31:46.778Z,1011.37
2018-07-29T00:32:46.764Z,1011.42
2018-07-29T00:33:46.775Z,1011.39
2018-07-29T00:34:46.740Z,1011.42
2018-07-29T00:35:46.738Z,1011.44
2018-07-29T00:36:46.712Z,1011.43
2018-07-29T00:37:46.724Z,1011.42
2018-07-29T00:38:46.696Z,1011.45
2018-07-29T00:39:46.694Z,1011.42
2018-07-29T00:40:46.673Z,1011.40
2018-07-29T00:41:46.663Z,1011.38
2018-07-29T00:42:46.688Z,1011.41
2018-07-29T00:43:46.653Z,1011.40
2018-07-29T00:44:46.627Z,1011.39
2018-07-29T00:45:46.616Z,1011.43
2018-07-29T00:46:46.611Z,1011.44
2018-07-29T00:47:46.588Z,1011.42
2018-07-29T00:48:46.599Z,1011.48
2018-07-29T00:49:46.569Z,1011.46
2018-07-29T00:50:46.577Z,1011.51
2018-07-29T00:51:46.549Z,1011.48
2018-07-29T00:52:46.548Z,1011.49
2018-07-29T00:53:46.536Z,1011.49
2018-07-29T00:54:46.522Z,1011.50
2018-07-29T00:55:46.512Z,1011.48
2018-07-29T00:56:46.494Z,1011.43
2018-07-29T00:57:46.476Z,1011.44
2018-07-29T00:58:46.485Z,1011.43
2018-07-29T00:59:46.457Z,1011.41
2018-07-29T01:00:46.467Z,1011.44
2018-07-29T01:01:46.438Z,1011.40
2018-07-29T01:02:46.419Z,1011.41
2018-07-29T01:03:46.406Z,1011.45
2018-07-29T01:04:46.396Z,1011.43
2018-07-29T01:05:46.411Z,1011.45
2018-07-29T01:06:46.376Z,1011.41
2018-07-29T01:07:46.371Z,1011.45
2018-07-29T01:08:46.359Z,1011.44
2018-07-29T01:09:46.356Z,1011.44
2018-07-29T01:10:46.345Z,1011.40
2018-07-29T01:11:46.321Z,1011.44
2018-07-29T01:12:46.312Z,1011.44
2018-07-29T01:13:46.302Z,1011.45
2018-07-29T01:14:46.292Z,1011.44
2018-07-29T01:15:46.305Z,1011.43
2018-07-29T01:16:46.270Z,1011.43
2018-07-29T01:17:46.253Z,1011.44
2018-07-29T01:18:46.247Z,1011.40
2018-07-29T01:19:46.291Z,1011.43
2018-07-29T01:20:46.239Z,1011.40
2018-07-29T01:21:46.207Z,1011.41
2018-07-29T01:22:46.203Z,1011.37
2018-07-29T01:23:46.187Z,1011.38
2018-07-29T01:24:46.187Z,1011.39
2018-07-29T01:26:07.178Z,1011.35
2018-07-29T01:26:46.168Z,1011.34
2018-07-29T01:27:46.142Z,1011.34
2018-07-29T01:28:46.132Z,1011.32
2018-07-29T01:29:46.123Z,1011.32
2018-07-29T01:30:46.118Z,1011.32
2018-07-29T01:31:46.108Z,1011.32
2018-07-29T01:32:46.081Z,1011.31
2018-07-29T01:33:46.086Z,1011.31
2018-07-29T01:34:46.065Z,1011.29
2018-07-29T01:35:46.065Z,1011.28
2018-07-29T01:36:46.049Z,1011.22
2018-07-29T01:37:46.040Z,1011.25
2018-07-29T01:38:46.030Z,1011.22
2018-07-29T01:39:46.005Z,1011.18
2018-07-29T01:40:46.010Z,1011.20
2018-07-29T01:41:45.996Z,1011.18
2018-07-29T01:42:45.973Z,1011.19
2018-07-29T01:43:45.976Z,1011.15
2018-07-29T01:44:45.947Z,1011.18
2018-07-29T01:45:45.935Z,1011.17
2018-07-29T01:46:45.943Z,1011.15
2018-07-29T01:47:45.919Z,1011.14
2018-07-29T01:48:45.901Z,1011.14
2018-07-29T01:49:45.891Z,1011.12
2018-07-29T01:50:45.884Z,1011.09
2018-07-29T01:51:45.872Z,1011.05
2018-07-29T01:52:45.879Z,1011.02
2018-07-29T01:53:45.849Z,1011.02
2018-07-29T01:54:45.836Z,1011.00
2018-07-29T01:55:45.829Z,1011.00
2018-07-29T01:56:45.810Z,1011.01
2018-07-29T01:57:45.816Z,1011.00
2018-07-29T01:58:45.809Z,1010.98
2018-07-29T01:59:45.781Z,1010.99
2018-07-29T02:00:45.772Z,1010.97
2018-07-29T02:01:45.769Z,1010.96
2018-07-29T02:02:45.762Z,1010.99
2018-07-29T02:03:45.751Z,1011.00
2018-07-29T02:04:45.730Z,1010.98
2018-07-29T02:05:45.709Z,1010.98
2018-07-29T02:06:45.702Z,1010.99
2018-07-29T02:07:45.706Z,1010.97
2018-07-29T02:08:45.672Z,1010.97
2018-07-29T02:09:45.666Z,1010.97
2018-07-29T02:10:45.671Z,1010.96
2018-07-29T02:11:45.644Z,1010.96
2018-07-29T02:12:45.637Z,1010.95
2018-07-29T02:13:45.644Z,1010.94
2018-07-29T02:14:45.616Z,1010.89
2018-07-29T02:15:45.596Z,1010.88
2018-07-29T02:16:45.595Z,1010.90
2018-07-29T02:17:45.581Z,1010.85
2018-07-29T02:18:45.575Z,1010.85
2018-07-29T02:19:45.553Z,1010.85
2018-07-29T02:20:45.543Z,1010.83
2018-07-29T02:21:45.532Z,1010.84
2018-07-29T02:22:45.521Z,1010.81
2018-07-29T02:23:45.522Z,1010.83
2018-07-29T02:24:45.508Z,1010.82
2018-07-29T02:25:45.502Z,1010.83
2018-07-29T02:26:45.474Z,1010.86
2018-07-29T02:27:45.465Z,1010.86
2018-07-29T02:28:45.452Z,1010.87
2018-07-29T02:29:45.436Z,1010.89
2018-07-29T02:30:45.455Z,1010.85
2018-07-29T02:31:45.415Z,1010.83
2018-07-29T02:32:45.424Z,1010.79
2018-07-29T02:33:45.395Z,1010.80
2018-07-29T02:34:45.394Z,1010.77
2018-07-29T02:35:45.385Z,1010.76
2018-07-29T02:36:45.368Z,1010.78
2018-07-29T02:37:45.366Z,1010.79
2018-07-29T02:38:45.345Z,1010.80
2018-07-29T02:39:45.326Z,1010.79
2018-07-29T02:40:45.320Z,1010.82
2018-07-29T02:41:45.320Z,1010.80
2018-07-29T02:42:45.293Z,1010.79
2018-07-29T02:43:45.298Z,1010.80
2018-07-29T02:44:45.271Z,1010.82
2018-07-29T02:45:45.262Z,1010.79
2018-07-29T02:46:45.270Z,1010.77
2018-07-29T02:47:45.246Z,1010.79
2018-07-29T02:48:45.224Z,1010.77
2018-07-29T02:49:45.216Z,1010.73
2018-07-29T02:50:45.199Z,1010.70
2018-07-29T02:51:45.226Z,1010.69
2018-07-29T02:52:45.187Z,1010.71
2018-07-29T02:53:45.180Z,1010.69
2018-07-29T02:54:45.160Z,1010.69
2018-07-29T02:55:45.157Z,1010.68
2018-07-29T02:56:45.164Z,1010.69
2018-07-29T02:57:45.140Z,1010.70
2018-07-29T02:58:45.121Z,1010.71
2018-07-29T02:59:45.098Z,1010.69
2018-07-29T03:00:45.090Z,1010.68
2018-07-29T03:01:45.115Z,1010.70
2018-07-29T03:02:45.102Z,1010.68
2018-07-29T03:03:45.057Z,1010.67
2018-07-29T03:04:45.048Z,1010.67
2018-07-29T03:05:45.035Z,1010.64
2018-07-29T03:06:45.029Z,1010.64
2018-07-29T03:07:45.040Z,1010.60
2018-07-29T03:08:44.997Z,1010.56
2018-07-29T03:09:44.988Z,1010.57
2018-07-29T03:10:44.980Z,1010.58
2018-07-29T03:11:44.965Z,1010.59
2018-07-29T03:12:44.956Z,1010.60
2018-07-29T03:13:44.964Z,1010.60
2018-07-29T03:14:44.931Z,1010.63
2018-07-29T03:15:44.926Z,1010.68
2018-07-29T03:16:44.913Z,1010.68
2018-07-29T03:17:44.926Z,1010.67
2018-07-29T03:18:44.892Z,1010.67
2018-07-29T03:19:44.881Z,1010.62
2018-07-29T03:20:44.866Z,1010.66
2018-07-29T03:21:44.853Z,1010.67
2018-07-29T03:23:05.856Z,1010.66
2018-07-29T03:23:44.838Z,1010.70
2018-07-29T03:24:44.821Z,1010.70
2018-07-29T03:25:44.806Z,1010.69
2018-07-29T03:26:44.798Z,1010.71
2018-07-29T03:27:44.783Z,1010.70
2018-07-29T03:28:44.788Z,1010.69
2018-07-29T03:29:44.760Z,1010.71
2018-07-29T03:30:44.757Z,1010.64
2018-07-29T03:31:44.756Z,1010.66
2018-07-29T03:32:44.723Z,1010.62
2018-07-29T03:33:44.714Z,1010.59
2018-07-29T03:35:05.722Z,1010.57
2018-07-29T03:35:44.689Z,1010.57
2018-07-29T03:36:44.677Z,1010.57
2018-07-29T03:37:44.680Z,1010.51
2018-07-29T03:38:44.667Z,1010.53
2018-07-29T03:39:44.649Z,1010.47
2018-07-29T03:40:44.662Z,1010.53
2018-07-29T03:41:44.630Z,1010.50
2018-07-29T03:42:44.613Z,1010.49
2018-07-29T03:43:44.605Z,1010.53
2018-07-29T03:44:44.593Z,1010.50
2018-07-29T03:45:44.595Z,1010.48
2018-07-29T03:46:44.571Z,1010.46
2018-07-29T03:47:44.559Z,1010.45
2018-07-29T03:48:44.544Z,1010.45
2018-07-29T03:49:44.535Z,1010.40
2018-07-29T03:50:44.534Z,1010.42
2018-07-29T03:51:44.534Z,1010.37
2018-07-29T03:52:44.517Z,1010.35
2018-07-29T03:53:44.502Z,1010.32
2018-07-29T03:54:44.479Z,1010.34
2018-07-29T03:55:44.466Z,1010.37
2018-07-29T03:56:44.460Z,1010.40
2018-07-29T03:57:44.460Z,1010.38
2018-07-29T03:58:44.432Z,1010.39
2018-07-29T03:59:44.438Z,1010.42
2018-07-29T04:00:44.412Z,1010.39
2018-07-29T04:01:44.415Z,1010.42
2018-07-29T04:02:44.385Z,1010.43
2018-07-29T04:03:44.374Z,1010.44
2018-07-29T04:04:44.362Z,1010.41
2018-07-29T04:05:44.366Z,1010.40
2018-07-29T04:06:44.359Z,1010.38
2018-07-29T04:07:44.348Z,1010.36
2018-07-29T04:08:44.320Z,1010.36
2018-07-29T04:09:44.302Z,1010.37
2018-07-29T04:10:44.302Z,1010.34
2018-07-29T04:11:44.288Z,1010.27
2018-07-29T04:12:44.267Z,1010.28
2018-07-29T04:13:44.438Z,1010.26
2018-07-29T04:14:44.282Z,1010.25
2018-07-29T04:15:44.236Z,1010.20
2018-07-29T04:16:44.268Z,1010.21
2018-07-29T04:17:44.238Z,1010.21
2018-07-29T04:18:46.464Z,1010.20
2018-07-29T04:19:46.171Z,1010.20
2018-07-29T04:20:44.178Z,1010.20
2018-07-29T04:21:45.031Z,1010.16
2018-07-29T04:22:44.186Z,1010.15
2018-07-29T04:23:44.355Z,1010.11
2018-07-29T04:24:44.610Z,1010.07
2018-07-29T04:25:44.123Z,1010.05
2018-07-29T04:26:44.162Z,1010.03
2018-07-29T04:27:44.127Z,1010.00
2018-07-29T04:28:44.107Z,1009.97
2018-07-29T04:29:44.116Z,1009.91
2018-07-29T04:30:44.107Z,1009.86
2018-07-29T04:31:44.080Z,1009.84
2018-07-29T04:32:44.080Z,1009.85
2018-07-29T04:33:44.049Z,1009.87
2018-07-29T04:34:44.057Z,1009.88
2018-07-29T04:35:44.029Z,1009.88
2018-07-29T04:36:44.033Z,1009.84
2018-07-29T04:37:43.997Z,1009.80
2018-07-29T04:38:43.996Z,1009.75
2018-07-29T04:39:43.959Z,1009.72
2018-07-29T04:40:43.972Z,1009.67
2018-07-29T04:41:43.942Z,1009.61
2018-07-29T04:42:43.944Z,1009.53
2018-07-29T04:43:43.919Z,1009.40
2018-07-29T04:44:43.912Z,1009.34
2018-07-29T04:45:43.913Z,1009.34
2018-07-29T04:46:43.874Z,1009.26
2018-07-29T04:47:43.861Z,1009.20
2018-07-29T04:48:43.857Z,1009.22
2018-07-29T04:49:43.847Z,1009.26
2018-07-29T04:50:43.829Z,1009.35
2018-07-29T04:51:43.844Z,1009.41
2018-07-29T04:52:43.804Z,1009.53
2018-07-29T04:55:55.529Z,1009.83
2018-07-29T04:56:41.495Z,1009.87
2018-07-29T04:59:59.581Z,1010.13
2018-07-29T05:00:30.948Z,1010.14
2018-07-29T05:01:23.273Z,1010.20
2018-07-29T05:02:23.232Z,1010.26
2018-07-29T05:03:23.222Z,1010.28
2018-07-29T05:04:23.204Z,1010.25
2018-07-29T05:05:23.194Z,1010.28
2018-07-29T05:06:23.200Z,1010.25
2018-07-29T05:07:23.190Z,1010.29
2018-07-29T05:08:23.158Z,1010.27
2018-07-29T05:09:24.046Z,1010.27
2018-07-29T05:10:23.151Z,1010.33
2018-07-29T05:11:23.177Z,1010.36
2018-07-29T05:12:23.136Z,1010.32
2018-07-29T05:13:23.190Z,1010.33
2018-07-29T05:14:23.089Z,1010.27
2018-07-29T05:15:23.082Z,1010.22
2018-07-29T05:16:23.069Z,1010.25
2018-07-29T05:17:23.053Z,1010.30
2018-07-29T05:18:23.044Z,1010.25
2018-07-29T05:19:23.048Z,1010.22
2018-07-29T05:20:23.030Z,1010.16
2018-07-29T05:21:23.017Z,1010.21
2018-07-29T05:22:23.015Z,1010.22
2018-07-29T05:23:22.993Z,1010.25
2018-07-29T05:24:22.971Z,1010.25
2018-07-29T05:25:22.964Z,1010.25
2018-07-29T05:26:22.955Z,1010.32
2018-07-29T05:27:22.940Z,1010.30
2018-07-29T05:28:22.965Z,1010.35
2018-07-29T05:29:22.935Z,1010.40
2018-07-29T05:30:22.925Z,1010.33
2018-07-29T05:31:22.900Z,1010.31
2018-07-29T05:32:22.888Z,1010.31
2018-07-29T05:33:22.906Z,1010.27
2018-07-29T05:34:22.860Z,1010.31
2018-07-29T05:35:22.849Z,1010.31
2018-07-29T05:36:22.837Z,1010.28
2018-07-29T05:37:22.830Z,1010.33
2018-07-29T05:38:22.831Z,1010.30
2018-07-29T05:39:22.805Z,1010.27
2018-07-29T05:40:22.821Z,1010.29
2018-07-29T05:41:22.785Z,1010.29
2018-07-29T05:42:22.774Z,1010.30
2018-07-29T05:43:22.799Z,1010.30
2018-07-29T05:44:22.747Z,1010.30
2018-07-29T05:45:22.826Z,1010.32
2018-07-29T05:46:22.720Z,1010.34
2018-07-29T05:47:22.720Z,1010.35
2018-07-29T05:48:22.701Z,1010.38
2018-07-29T05:49:22.697Z,1010.41
2018-07-29T05:50:22.696Z,1010.41
2018-07-29T05:51:22.673Z,1010.43
2018-07-29T05:52:22.662Z,1010.48
2018-07-29T05:53:22.652Z,1010.46
2018-07-29T05:54:22.648Z,1010.46
2018-07-29T05:55:22.613Z,1010.48
2018-07-29T05:56:22.607Z,1010.55
2018-07-29T05:57:22.616Z,1010.55
2018-07-29T05:58:22.586Z,1010.55
2018-07-29T05:59:22.581Z,1010.56
2018-07-29T06:00:22.579Z,1010.57
2018-07-29T06:01:22.544Z,1010.50
2018-07-29T06:02:22.547Z,1010.50
2018-07-29T06:03:22.526Z,1010.52
2018-07-29T06:04:22.534Z,1010.46
2018-07-29T06:05:22.503Z,1010.49
2018-07-29T06:06:22.504Z,1010.46
2018-07-29T06:07:22.482Z,1010.43
2018-07-29T06:08:22.472Z,1010.45
2018-07-29T06:09:22.470Z,1010.46
2018-07-29T06:10:22.487Z,1010.44
2018-07-29T06:11:22.459Z,1010.41
2018-07-29T06:12:22.425Z,1010.41
2018-07-29T06:13:22.421Z,1010.38
2018-07-29T06:14:22.418Z,1010.41
2018-07-29T06:15:22.415Z,1010.37
2018-07-29T06:16:22.397Z,1010.37
2018-07-29T06:17:22.382Z,1010.34
2018-07-29T06:18:22.352Z,1010.30
2018-07-29T06:19:22.344Z,1010.32
2018-07-29T06:20:22.370Z,1010.27
2018-07-29T06:21:22.324Z,1010.32
2018-07-29T06:22:22.310Z,1010.28
2018-07-29T06:23:22.308Z,1010.32
2018-07-29T06:24:22.299Z,1010.28
2018-07-29T06:25:22.304Z,1010.27
2018-07-29T06:26:22.266Z,1010.21
2018-07-29T06:27:22.291Z,1010.28
2018-07-29T06:28:22.262Z,1010.29
2018-07-29T06:29:23.075Z,1010.21
2018-07-29T06:30:22.219Z,1010.25
2018-07-29T06:31:33.223Z,1010.27
2018-07-29T06:32:23.541Z,1010.32
2018-07-29T06:33:22.186Z,1010.32
2018-07-29T06:34:22.178Z,1010.31
2018-07-29T06:35:22.171Z,1010.29
2018-07-29T06:36:22.174Z,1010.32
2018-07-29T06:37:22.157Z,1010.27
2018-07-29T06:38:22.128Z,1010.27
2018-07-29T06:39:22.122Z,1010.23
2018-07-29T06:40:22.106Z,1010.24
2018-07-29T06:41:22.092Z,1010.15
2018-07-29T06:42:22.117Z,1010.14
2018-07-29T06:43:22.072Z,1010.15
2018-07-29T06:44:22.074Z,1010.21
2018-07-29T06:45:22.052Z,1010.23
2018-07-29T06:46:22.043Z,1010.25
2018-07-29T06:47:22.042Z,1010.27
2018-07-29T06:48:22.020Z,1010.22
2018-07-29T06:49:22.018Z,1010.20
2018-07-29T06:50:21.999Z,1010.20
2018-07-29T06:51:21.989Z,1010.24
2018-07-29T06:52:22.034Z,1010.19
2018-07-29T06:53:21.965Z,1010.19
2018-07-29T06:54:21.959Z,1010.18
2018-07-29T06:55:21.940Z,1010.18
2018-07-29T06:56:21.975Z,1010.17
2018-07-29T06:57:21.916Z,1010.22
2018-07-29T06:58:21.951Z,1010.26
2018-07-29T06:59:21.909Z,1010.29
2018-07-29T07:00:21.885Z,1010.34
2018-07-29T07:01:21.877Z,1010.30
2018-07-29T07:02:21.878Z,1010.27
2018-07-29T07:03:21.947Z,1010.26
2018-07-29T07:04:21.839Z,1010.28
2018-07-29T07:05:21.834Z,1010.26
2018-07-29T07:06:21.822Z,1010.28
2018-07-29T07:07:21.863Z,1010.28
2018-07-29T07:08:21.817Z,1010.32
2018-07-29T07:09:21.791Z,1010.32
2018-07-29T07:10:21.907Z,1010.38
2018-07-29T07:11:21.767Z,1010.31
2018-07-29T07:12:21.771Z,1010.33
2018-07-29T07:13:21.745Z,1010.34
2018-07-29T07:14:21.733Z,1010.32
2018-07-29T07:15:21.724Z,1010.35
2018-07-29T07:16:21.739Z,1010.32
2018-07-29T07:17:21.723Z,1010.36
2018-07-29T07:18:21.696Z,1010.38
2018-07-29T07:19:21.701Z,1010.38
2018-07-29T07:20:21.675Z,1010.31
2018-07-29T07:21:21.758Z,1010.29
2018-07-29T07:22:21.659Z,1010.35
2018-07-29T07:23:21.643Z,1010.34
2018-07-29T07:24:21.651Z,1010.36
2018-07-29T07:25:21.626Z,1010.34
2018-07-29T07:26:21.622Z,1010.32
2018-07-29T07:27:21.600Z,1010.35
2018-07-29T07:28:21.595Z,1010.28
2018-07-29T07:29:21.600Z,1010.33
2018-07-29T07:30:21.574Z,1010.33
2018-07-29T07:31:21.586Z,1010.31
2018-07-29T07:32:21.581Z,1010.29
2018-07-29T07:33:21.544Z,1010.35
2018-07-29T07:34:21.533Z,1010.33
2018-07-29T07:35:21.525Z,1010.35
2018-07-29T07:36:21.554Z,1010.36
2018-07-29T07:37:21.514Z,1010.39
2018-07-29T07:38:21.512Z,1010.38
2018-07-29T07:39:21.488Z,1010.35
2018-07-29T07:40:21.478Z,1010.31
2018-07-29T07:41:21.469Z,1010.32
2018-07-29T07:42:22.490Z,1010.35
2018-07-29T07:43:21.461Z,1010.36
2018-07-29T07:44:21.435Z,1010.41
2018-07-29T07:45:21.422Z,1010.38
2018-07-29T07:46:21.420Z,1010.39
2018-07-29T07:47:21.428Z,1010.41
2018-07-29T07:48:21.403Z,1010.44
2018-07-29T07:49:21.385Z,1010.41
2018-07-29T07:50:21.374Z,1010.41
2018-07-29T07:51:21.380Z,1010.44
2018-07-29T07:52:21.363Z,1010.48
2018-07-29T07:53:42.356Z,1010.50
2018-07-29T07:54:21.342Z,1010.48
2018-07-29T07:55:21.324Z,1010.46
2018-07-29T07:56:21.356Z,1010.45
2018-07-29T07:57:21.306Z,1010.47
2018-07-29T07:58:21.311Z,1010.51
2018-07-29T07:59:21.286Z,1010.51
2018-07-29T08:00:21.305Z,1010.52
2018-07-29T08:01:21.267Z,1010.50
2018-07-29T08:02:21.276Z,1010.48
2018-07-29T08:03:21.250Z,1010.52
2018-07-29T08:04:21.235Z,1010.53
2018-07-29T08:05:21.228Z,1010.49
2018-07-29T08:06:21.231Z,1010.48
2018-07-29T08:07:21.213Z,1010.50
2018-07-29T08:08:23.008Z,1010.51
2018-07-29T08:09:21.261Z,1010.50
2018-07-29T08:10:21.194Z,1010.42
2018-07-29T08:11:21.169Z,1010.44
2018-07-29T08:12:21.156Z,1010.38
2018-07-29T08:13:21.172Z,1010.44
2018-07-29T08:14:21.142Z,1010.45
2018-07-29T08:15:21.168Z,1010.44
2018-07-29T08:16:21.135Z,1010.41
2018-07-29T08:17:21.115Z,1010.41
2018-07-29T08:18:21.102Z,1010.42
2018-07-29T08:19:21.112Z,1010.36
2018-07-29T08:20:21.103Z,1010.40
2018-07-29T08:21:21.082Z,1010.32
2018-07-29T08:22:21.098Z,1010.30
2018-07-29T08:23:21.058Z,1010.32
2018-07-29T08:24:21.047Z,1010.30
2018-07-29T08:25:21.048Z,1010.36
2018-07-29T08:26:21.050Z,1010.42
2018-07-29T08:27:21.039Z,1010.38
2018-07-29T08:28:21.008Z,1010.36
2018-07-29T08:29:21.002Z,1010.40
2018-07-29T08:30:21.005Z,1010.40
2018-07-29T08:31:20.988Z,1010.33
2018-07-29T08:32:20.986Z,1010.35
2018-07-29T08:33:20.978Z,1010.38
2018-07-29T08:34:20.951Z,1010.41
2018-07-29T08:35:20.955Z,1010.42
2018-07-29T08:36:20.955Z,1010.38
2018-07-29T08:37:20.967Z,1010.34
2018-07-29T08:38:20.933Z,1010.34
2018-07-29T08:39:20.905Z,1010.33
2018-07-29T08:40:20.897Z,1010.33
2018-07-29T08:41:20.908Z,1010.34
2018-07-29T08:42:20.882Z,1010.34
2018-07-29T08:43:20.907Z,1010.41
2018-07-29T08:44:20.865Z,1010.38
2018-07-29T08:45:20.907Z,1010.40
2018-07-29T08:46:20.861Z,1010.38
2018-07-29T08:47:20.836Z,1010.42
2018-07-29T08:48:20.842Z,1010.39
2018-07-29T08:49:20.844Z,1010.39
2018-07-29T08:50:20.813Z,1010.44
2018-07-29T08:51:20.804Z,1010.38
2018-07-29T08:52:20.878Z,1010.41
2018-07-29T08:53:20.807Z,1010.43
2018-07-29T08:54:20.777Z,1010.40
2018-07-29T08:55:20.777Z,1010.41
2018-07-29T08:56:20.755Z,1010.38
2018-07-29T08:57:20.762Z,1010.47
2018-07-29T08:58:20.795Z,1010.39
2018-07-29T08:59:20.732Z,1010.49
2018-07-29T09:00:20.730Z,1010.46
2018-07-29T09:01:20.721Z,1010.48
2018-07-29T09:02:20.714Z,1010.48
2018-07-29T09:03:20.720Z,1010.48
2018-07-29T09:04:20.692Z,1010.49
2018-07-29T09:05:20.685Z,1010.48
2018-07-29T09:06:20.677Z,1010.51
2018-07-29T09:07:20.666Z,1010.54
2018-07-29T09:08:20.656Z,1010.58
2018-07-29T09:09:20.667Z,1010.55
2018-07-29T09:10:20.641Z,1010.56
2018-07-29T09:11:20.645Z,1010.54
2018-07-29T09:12:20.622Z,1010.53
2018-07-29T09:13:20.613Z,1010.53
2018-07-29T09:14:20.607Z,1010.55
2018-07-29T09:15:20.615Z,1010.50
2018-07-29T09:16:20.595Z,1010.54
2018-07-29T09:17:20.587Z,1010.57
2018-07-29T09:18:20.580Z,1010.51
2018-07-29T09:19:20.573Z,1010.56
2018-07-29T09:20:20.588Z,1010.53
2018-07-29T09:21:20.546Z,1010.46
2018-07-29T09:22:20.559Z,1010.51
2018-07-29T09:23:20.533Z,1010.43
2018-07-29T09:24:20.538Z,1010.37
2018-07-29T09:25:20.522Z,1010.36
2018-07-29T09:26:20.637Z,1010.34
2018-07-29T09:27:20.516Z,1010.36
2018-07-29T09:28:20.504Z,1010.37
2018-07-29T09:29:20.488Z,1010.37
2018-07-29T09:30:20.589Z,1010.38
2018-07-29T09:31:20.488Z,1010.32
2018-07-29T09:32:20.470Z,1010.37
2018-07-29T09:33:20.465Z,1010.34
2018-07-29T09:34:20.452Z,1010.30
2018-07-29T09:35:20.450Z,1010.25
2018-07-29T09:36:20.454Z,1010.24
2018-07-29T09:37:20.422Z,1010.23
2018-07-29T09:38:20.419Z,1010.23
2018-07-29T09:39:20.406Z,1010.18
2018-07-29T09:40:20.420Z,1010.21
2018-07-29T09:41:20.411Z,1010.23
2018-07-29T09:42:20.404Z,1010.23
2018-07-29T09:43:20.376Z,1010.24
2018-07-29T09:44:20.369Z,1010.19
2018-07-29T09:45:20.424Z,1010.24
2018-07-29T09:46:20.356Z,1010.20
2018-07-29T09:47:20.355Z,1010.23
2018-07-29T09:48:20.335Z,1010.22
2018-07-29T09:49:20.322Z,1010.22
2018-07-29T09:50:20.318Z,1010.27
2018-07-29T09:51:20.315Z,1010.24
2018-07-29T09:52:20.325Z,1010.18
2018-07-29T09:53:20.293Z,1010.03
2018-07-29T09:54:20.292Z,1010.17
2018-07-29T09:55:20.281Z,1010.19
2018-07-29T09:56:20.272Z,1010.14
2018-07-29T09:57:20.649Z,1010.14
2018-07-29T09:58:20.259Z,1010.15
2018-07-29T09:59:20.253Z,1010.18
2018-07-29T10:00:20.239Z,1010.14
2018-07-29T10:01:20.239Z,1010.16
2018-07-29T10:02:20.223Z,1010.17
2018-07-29T10:03:20.232Z,1010.19
2018-07-29T10:04:20.212Z,1010.18
2018-07-29T10:05:20.198Z,1010.15
2018-07-29T10:06:20.195Z,1010.21
2018-07-29T10:07:20.181Z,1010.15
2018-07-29T10:08:20.191Z,1010.13
2018-07-29T10:09:20.231Z,1010.13
2018-07-29T10:10:20.158Z,1010.14
2018-07-29T10:11:20.154Z,1010.09
2018-07-29T10:12:20.143Z,1010.11
2018-07-29T10:13:20.151Z,1010.10
2018-07-29T10:14:20.181Z,1010.03
2018-07-29T10:15:20.122Z,1010.12
2018-07-29T10:16:20.113Z,1010.12
2018-07-29T10:17:20.105Z,1010.12
2018-07-29T10:18:20.118Z,1010.09
2018-07-29T10:19:20.094Z,1010.14
2018-07-29T10:20:20.084Z,1010.13
2018-07-29T10:21:20.073Z,1010.09
2018-07-29T10:22:20.066Z,1010.08
2018-07-29T10:23:20.073Z,1010.06
2018-07-29T10:24:20.066Z,1010.01
2018-07-29T10:25:20.043Z,1010.06
2018-07-29T10:26:20.029Z,1010.12
2018-07-29T10:27:20.023Z,1010.08
2018-07-29T10:28:20.029Z,1010.01
2018-07-29T10:29:20.006Z,1010.04
2018-07-29T10:30:20.071Z,1009.85
2018-07-29T10:31:19.993Z,1009.95
2018-07-29T10:32:19.984Z,1009.98
2018-07-29T10:33:19.984Z,1009.99
2018-07-29T10:34:19.961Z,1009.97
2018-07-29T10:35:19.979Z,1010.00
2018-07-29T10:36:19.965Z,1010.00
2018-07-29T10:37:19.937Z,1009.96
2018-07-29T10:38:19.928Z,1009.99
2018-07-29T10:39:19.921Z,1009.99
2018-07-29T10:40:27.557Z,1009.98
2018-07-29T10:41:19.932Z,1009.97
2018-07-29T10:43:19.886Z,1010.03
2018-07-29T10:44:19.895Z,1010.02
2018-07-29T10:45:19.871Z,1009.99
2018-07-29T10:46:19.892Z,1010.07
2018-07-29T10:47:19.879Z,1010.04
2018-07-29T10:48:19.842Z,1010.09
2018-07-29T10:49:19.842Z,1010.08
2018-07-29T10:50:19.829Z,1010.07
2018-07-29T10:51:19.838Z,1010.06
2018-07-29T10:52:19.823Z,1010.06
2018-07-29T10:53:19.811Z,1010.07
2018-07-29T10:54:19.791Z,1010.07
2018-07-29T10:55:19.785Z,1010.10
2018-07-29T10:56:19.790Z,1010.04
2018-07-29T10:57:19.784Z,1010.00
2018-07-29T10:58:19.760Z,1010.05
2018-07-29T10:59:19.813Z,1010.02
2018-07-29T11:00:20.403Z,1009.98
2018-07-29T11:01:19.734Z,1010.03
2018-07-29T11:02:19.740Z,1009.96
2018-07-29T11:03:19.717Z,1009.95
2018-07-29T11:04:19.713Z,1009.97
2018-07-29T11:05:19.697Z,1010.00
2018-07-29T11:06:19.696Z,1009.92
2018-07-29T11:07:19.691Z,1009.89
2018-07-29T11:08:19.673Z,1009.95
2018-07-29T11:09:19.661Z,1009.86
2018-07-29T11:10:19.660Z,1009.92
2018-07-29T11:11:19.655Z,1009.90
2018-07-29T11:12:19.651Z,1009.89
2018-07-29T11:13:19.634Z,1009.84
2018-07-29T11:14:19.621Z,1009.89
2018-07-29T11:15:19.612Z,1009.89
2018-07-29T11:16:19.596Z,1009.91
2018-07-29T11:17:19.618Z,1009.88
2018-07-29T11:18:19.583Z,1009.89
2018-07-29T11:19:19.576Z,1009.92
2018-07-29T11:20:19.577Z,1009.90
2018-07-29T11:21:19.554Z,1009.88
2018-07-29T11:22:19.547Z,1009.93
2018-07-29T11:23:19.554Z,1009.95
2018-07-29T11:24:19.532Z,1009.93
2018-07-29T11:25:19.525Z,1009.88
2018-07-29T11:26:19.516Z,1009.93
2018-07-29T11:27:19.505Z,1009.98
2018-07-29T11:28:19.577Z,1009.95
2018-07-29T11:29:19.489Z,1009.96
2018-07-29T11:30:19.491Z,1009.95
2018-07-29T11:31:19.468Z,1009.90
2018-07-29T11:32:19.461Z,1009.89
2018-07-29T11:33:19.468Z,1009.88
2018-07-29T11:34:19.439Z,1009.89
2018-07-29T11:35:19.456Z,1009.86
2018-07-29T11:36:19.431Z,1009.83
2018-07-29T11:37:19.417Z,1009.85
2018-07-29T11:38:19.440Z,1009.82
2018-07-29T11:39:19.402Z,1009.82
2018-07-29T11:40:19.390Z,1009.81
2018-07-29T11:41:19.384Z,1009.81
2018-07-29T11:42:19.379Z,1009.81
2018-07-29T11:43:19.380Z,1009.88
2018-07-29T11:44:19.359Z,1009.84
2018-07-29T11:45:19.351Z,1009.80
2018-07-29T11:46:19.344Z,1009.80
2018-07-29T11:47:19.333Z,1009.76
2018-07-29T11:48:19.340Z,1009.77
2018-07-29T11:49:19.312Z,1009.78
2018-07-29T11:50:19.305Z,1009.82
2018-07-29T11:51:19.296Z,1009.81
2018-07-29T11:52:19.291Z,1009.81
2018-07-29T11:53:19.280Z,1009.84
2018-07-29T11:54:19.286Z,1009.82
2018-07-29T11:55:19.259Z,1009.79
2018-07-29T11:56:19.263Z,1009.79
2018-07-29T11:57:19.251Z,1009.77
2018-07-29T11:58:19.238Z,1009.81
2018-07-29T11:59:19.243Z,1009.83
2018-07-29T12:00:19.223Z,1009.80
2018-07-29T12:01:19.207Z,1009.75
2018-07-29T12:02:19.196Z,1009.75
2018-07-29T12:03:19.205Z,1009.73
2018-07-29T12:04:19.186Z,1009.75
2018-07-29T12:05:19.173Z,1009.69
2018-07-29T12:06:19.163Z,1009.73
2018-07-29T12:07:19.154Z,1009.76
2018-07-29T12:08:19.168Z,1009.75
2018-07-29T12:09:19.144Z,1009.78
2018-07-29T12:10:19.160Z,1009.74